Time;durP1;ratioP1;P1;durP2;ratioP2;P2;SDS_P1;SDS_P2;PMS_P1;PMS_P2;Temp;Humidity;BMP_temperature;BMP_pressure;BME280_temperature;BME280_humidity;BME280_pressure;Samples;Min_cycle;Max_cycle;Signal;HPM_P1;HPM_P2
2022/10/30 00:01:03;;;;;;;0.80;0.80;;;13.90;93.90;13.30;96444.00;;;;5093222;28;20233;-53
2022/10/30 00:03:29;;;;;;;1.37;1.23;;;14.00;93.90;13.30;96440.00;;;;5093454;28;20205;-55
2022/10/30 00:05:58;;;;;;;5.53;2.53;;;14.00;93.90;13.20;96433.00;;;;5093238;28;20233;-54
2022/10/30 00:08:24;;;;;;;1.60;1.00;;;14.00;93.90;13.30;96439.00;;;;5093273;28;20238;-55
2022/10/30 00:10:51;;;;;;;1.87;1.77;;;13.90;94.10;13.20;96434.00;;;;5093402;28;20292;-54
2022/10/30 00:13:20;;;;;;;3.07;2.37;;;13.90;94.30;13.20;96435.00;;;;5093275;28;20183;-54
2022/10/30 00:15:49;;;;;;;1.43;1.33;;;13.90;94.70;13.20;96402.00;;;;5093152;28;20187;-53
2022/10/30 00:18:16;;;;;;;0.97;0.97;;;13.90;95.00;13.10;96434.00;;;;5093040;28;20225;-53
2022/10/30 00:20:42;;;;;;;2.40;2.30;;;13.80;94.60;13.00;96425.00;;;;5093104;28;20223;-53
2022/10/30 00:23:09;;;;;;;1.43;1.33;;;13.70;94.40;13.00;96434.00;;;;5093026;28;20237;-53
2022/10/30 00:25:36;;;;;;;2.07;1.93;;;13.70;94.80;13.00;96429.00;;;;5093071;28;20206;-55
2022/10/30 00:28:03;;;;;;;1.83;1.67;;;13.70;94.90;13.00;96420.00;;;;5092955;28;20234;-55
2022/10/30 00:30:30;;;;;;;0.80;0.80;;;13.70;94.60;13.10;96438.00;;;;5093134;28;20199;-54
2022/10/30 00:32:57;;;;;;;1.10;0.97;;;13.70;95.60;13.10;96436.00;;;;5093079;28;20202;-55
2022/10/30 00:35:23;;;;;;;1.67;1.57;;;13.70;94.70;13.10;96424.00;;;;5093041;28;20263;-54
2022/10/30 00:37:50;;;;;;;2.07;1.97;;;13.70;94.70;13.10;96435.00;;;;5092879;28;20201;-53
2022/10/30 00:40:17;;;;;;;2.30;2.10;;;13.70;94.70;13.10;96431.00;;;;5092701;28;20226;-59
2022/10/30 00:42:44;;;;;;;3.40;2.00;;;13.70;94.90;13.10;96434.00;;;;5092984;28;20203;-54
2022/10/30 00:45:13;;;;;;;1.63;1.53;;;13.70;95.00;13.10;96435.00;;;;5091826;28;20570;-54
2022/10/30 00:47:45;;;;;;;1.83;1.73;;;13.70;95.20;13.10;96440.00;;;;5092756;28;20563;-53
2022/10/30 00:50:17;;;;;;;0.97;0.97;;;13.70;95.40;13.10;96439.00;;;;5092629;28;20207;-53
2022/10/30 00:52:52;;;;;;;1.53;1.43;;;13.70;95.30;12.90;96421.00;;;;5095665;28;20206;-54
2022/10/30 00:55:24;;;;;;;1.73;1.53;;;13.60;94.80;12.80;96437.00;;;;5096189;28;20657;-54
2022/10/30 00:57:52;;;;;;;0.90;0.90;;;13.60;95.00;12.80;96430.00;;;;5096277;28;20195;-54
2022/10/30 01:00:23;;;;;;;2.57;2.37;;;13.50;95.30;12.80;96432.00;;;;5078281;28;20223;-54
2022/10/30 01:02:52;;;;;;;2.10;1.63;;;13.50;95.70;12.80;96424.00;;;;5096060;28;20214;-54
2022/10/30 01:05:23;;;;;;;1.17;1.17;;;13.50;95.70;12.80;96422.00;;;;5096179;28;20255;-54
2022/10/30 01:07:49;;;;;;;1.00;1.00;;;13.50;95.40;12.80;96423.00;;;;5096014;28;20667;-56
2022/10/30 01:10:17;;;;;;;1.67;1.57;;;13.50;95.50;12.90;96417.00;;;;5078357;28;20217;-54
2022/10/30 01:12:46;;;;;;;1.93;1.77;;;13.50;95.70;12.90;96425.00;;;;5095782;28;20211;-54
2022/10/30 01:15:17;;;;;;;4.03;1.57;;;13.50;95.10;12.90;96421.00;;;;5096004;28;20267;-55
2022/10/30 01:18:28;;;;;;;0.67;0.67;;;13.50;94.80;12.90;96423.00;;;;5095922;28;20222;-62
2022/10/30 01:21:36;;;;;;;4.93;3.00;;;13.50;94.80;12.80;96422.00;;;;5095736;28;20209;-56
2022/10/30 01:24:25;;;;;;;2.53;2.33;;;13.50;95.20;12.80;96421.00;;;;5095790;28;20232;-54
2022/10/30 01:27:08;;;;;;;2.00;1.83;;;13.50;95.90;12.90;96422.00;;;;5094835;28;20215;-51
2022/10/30 01:29:55;;;;;;;2.20;2.00;;;13.50;96.50;12.70;96419.00;;;;5095670;28;20606;-52
2022/10/30 01:32:43;;;;;;;0.93;0.93;;;13.40;95.10;12.70;96415.00;;;;5095661;28;20190;-52
2022/10/30 01:35:20;;;;;;;1.07;1.07;;;13.40;95.90;12.70;96401.00;;;;5095735;28;20223;-53
2022/10/30 01:37:56;;;;;;;2.97;2.73;;;13.40;95.80;12.60;96412.00;;;;5095548;28;20197;-53
2022/10/30 01:40:23;;;;;;;3.40;1.43;;;13.30;96.10;12.70;96400.00;;;;5095486;28;20210;-53
2022/10/30 01:42:52;;;;;;;0.80;0.80;;;13.30;95.90;12.60;96372.00;;;;5095563;28;20222;-52
2022/10/30 01:45:34;;;;;;;1.30;1.27;;;13.30;95.60;12.70;96408.00;;;;5095463;28;20211;-53
2022/10/30 01:48:49;;;;;;;2.10;1.90;;;13.30;95.70;12.70;96392.00;;;;5095404;28;20205;-52
2022/10/30 01:51:31;;;;;;;1.67;1.57;;;13.30;95.40;12.70;96386.00;;;;5077564;28;20190;-53
2022/10/30 01:54:08;;;;;;;1.70;1.60;;;13.40;95.20;12.80;96389.00;;;;5094383;28;20271;-53
2022/10/30 01:56:44;;;;;;;0.73;0.73;;;13.40;95.30;12.80;96394.00;;;;5095361;28;20195;-59
2022/10/30 01:59:20;;;;;;;1.10;1.10;;;13.40;95.50;12.80;96390.00;;;;5095229;28;20607;-54
2022/10/30 02:01:48;;;;;;;0.83;0.83;;;13.50;95.20;12.70;96389.00;;;;5095171;28;20225;-54
2022/10/30 02:04:15;;;;;;;16.60;2.30;;;13.30;94.10;12.60;96388.00;;;;5093836;28;20222;-53
2022/10/30 02:06:42;;;;;;;6.13;2.13;;;13.30;94.60;12.60;96394.00;;;;5077341;28;20199;-54
2022/10/30 02:09:09;;;;;;;1.23;1.23;;;13.20;94.80;12.50;96384.00;;;;5095025;28;20610;-53
2022/10/30 02:11:37;;;;;;;0.87;0.87;;;13.20;95.00;12.60;96394.00;;;;5095043;28;20194;-54
2022/10/30 02:14:07;;;;;;;3.63;1.00;;;13.30;95.40;12.50;96386.00;;;;5094961;28;20816;-55
2022/10/30 02:16:40;;;;;;;1.53;1.10;;;13.30;95.30;12.50;96385.00;;;;5095032;28;20199;-53
2022/10/30 02:19:07;;;;;;;2.97;1.60;;;13.20;95.40;12.50;96386.00;;;;5094961;28;20556;-53
2022/10/30 02:21:34;;;;;;;4.03;1.43;;;13.20;95.70;12.40;96386.00;;;;5094898;28;20566;-55
2022/10/30 02:24:00;;;;;;;1.50;1.47;;;13.10;95.80;12.30;96381.00;;;;5094870;28;20209;-53
2022/10/30 02:26:27;;;;;;;0.80;0.80;;;13.00;95.60;12.20;96389.00;;;;5094729;28;20298;-53
2022/10/30 02:28:55;;;;;;;1.20;1.17;;;12.90;95.80;12.10;96378.00;;;;5094784;28;20205;-55
2022/10/30 02:31:21;;;;;;;1.00;1.00;;;12.90;96.10;12.20;96385.00;;;;5094690;28;20218;-55
2022/10/30 02:33:48;;;;;;;0.70;0.70;;;12.90;96.20;12.10;96377.00;;;;5094731;28;20604;-55
2022/10/30 02:36:15;;;;;;;0.90;0.90;;;12.90;95.90;12.20;96344.00;;;;5094583;28;20639;-55
2022/10/30 02:38:43;;;;;;;1.10;1.10;;;12.90;96.30;12.20;96377.00;;;;5094717;28;20210;-54
2022/10/30 02:41:10;;;;;;;4.67;1.80;;;12.90;96.20;12.40;96384.00;;;;5093524;28;20223;-53
2022/10/30 02:43:37;;;;;;;2.97;1.47;;;13.00;96.50;12.50;96389.00;;;;5094485;28;20223;-54
2022/10/30 02:46:04;;;;;;;1.27;1.27;;;13.10;96.10;12.30;96383.00;;;;5094566;28;20205;-54
2022/10/30 02:48:31;;;;;;;1.13;1.13;;;13.00;94.80;12.20;96383.00;;;;5094354;28;20222;-53
2022/10/30 02:50:59;;;;;;;0.80;0.80;;;12.90;95.00;12.20;96378.00;;;;5094421;28;20195;-52
2022/10/30 02:53:25;;;;;;;1.07;1.03;;;12.90;95.40;12.20;96386.00;;;;5094377;28;20225;-53
2022/10/30 02:55:52;;;;;;;1.53;1.43;;;12.90;95.40;12.20;96380.00;;;;5094317;28;20232;-54
2022/10/30 02:58:21;;;;;;;1.10;1.10;;;12.90;95.40;12.20;96376.00;;;;5094272;28;20282;-53
2022/10/30 03:00:47;;;;;;;1.30;1.30;;;12.90;95.10;12.20;96379.00;;;;5094144;28;20207;-55
2022/10/30 03:03:14;;;;;;;2.00;1.70;;;12.90;95.20;12.20;96376.00;;;;5094265;28;20285;-53
2022/10/30 03:05:40;;;;;;;0.70;0.70;;;12.80;94.70;12.10;96366.00;;;;5094205;28;20231;-55
2022/10/30 03:08:07;;;;;;;0.87;0.87;;;12.80;94.60;12.20;96374.00;;;;5094439;28;20658;-54
2022/10/30 03:10:33;;;;;;;1.23;1.23;;;12.80;94.70;12.20;96377.00;;;;5076258;28;20226;-54
2022/10/30 03:13:01;;;;;;;5.20;1.27;;;12.80;94.70;12.20;96378.00;;;;5094069;28;20213;-54
2022/10/30 03:15:27;;;;;;;1.53;1.30;;;12.80;94.90;12.00;96384.00;;;;5091754;28;20221;-56
2022/10/30 03:17:54;;;;;;;3.23;1.90;;;12.80;95.20;11.90;96377.00;;;;5094055;28;20270;-54
2022/10/30 03:20:22;;;;;;;5.27;2.97;;;12.70;95.70;11.90;96389.00;;;;5093926;28;20218;-55
2022/10/30 03:22:49;;;;;;;4.90;2.33;;;12.60;95.30;11.80;96386.00;;;;5094014;28;20218;-52
2022/10/30 03:25:16;;;;;;;0.97;0.97;;;12.60;96.10;11.80;96386.00;;;;5094009;28;20220;-54
2022/10/30 03:27:42;;;;;;;1.27;1.20;;;12.50;96.00;11.80;96383.00;;;;5093994;28;20214;-54
2022/10/30 03:30:11;;;;;;;1.10;1.10;;;12.50;96.20;11.70;96379.00;;;;5092877;28;20210;-53
2022/10/30 03:32:37;;;;;;;1.57;1.50;;;12.40;95.70;11.60;96382.00;;;;5093885;28;20259;-54
2022/10/30 03:35:04;;;;;;;2.07;1.90;;;12.40;96.70;11.50;96382.00;;;;5075970;28;20213;-54
2022/10/30 03:37:33;;;;;;;1.20;1.20;;;12.30;96.20;11.50;96385.00;;;;5093796;28;20197;-60
2022/10/30 03:39:59;;;;;;;1.70;1.60;;;12.30;96.60;11.50;96389.00;;;;5093820;28;20778;-56
2022/10/30 03:42:28;;;;;;;1.03;1.03;;;12.20;96.50;11.60;96385.00;;;;5093901;28;20272;-58
2022/10/30 03:44:54;;;;;;;1.70;1.60;;;12.30;96.90;11.60;96386.00;;;;5093709;28;20301;-61
2022/10/30 03:47:22;;;;;;;5.93;1.87;;;12.30;96.80;11.60;96384.00;;;;5093713;28;20306;-54
2022/10/30 03:49:48;;;;;;;0.83;0.83;;;12.30;96.60;11.60;96385.00;;;;5093690;28;20331;-59
2022/10/30 03:52:17;;;;;;;1.83;1.73;;;12.30;96.40;11.50;96392.00;;;;5093645;28;20326;-54
2022/10/30 03:54:43;;;;;;;1.00;0.90;;;12.30;96.20;11.50;96389.00;;;;5092421;28;20198;-54
2022/10/30 03:57:10;;;;;;;0.87;0.87;;;12.30;96.40;11.50;96385.00;;;;5093556;28;20302;-53
2022/10/30 03:59:36;;;;;;;0.70;0.70;;;12.30;96.10;11.50;96393.00;;;;5093564;28;20195;-57
2022/10/30 04:02:03;;;;;;;1.33;1.33;;;12.30;96.00;11.60;96384.00;;;;5093282;28;20218;-55
2022/10/30 04:04:30;;;;;;;1.67;1.57;;;12.30;96.70;11.60;96396.00;;;;5093389;28;20253;-53
2022/10/30 04:06:56;;;;;;;3.10;1.83;;;12.20;95.60;11.60;96393.00;;;;5093220;28;20313;-55
2022/10/30 04:09:22;;;;;;;2.77;1.97;;;12.30;96.40;11.60;96380.00;;;;5093370;28;20204;-54
2022/10/30 04:11:49;;;;;;;1.17;1.17;;;12.30;95.60;11.60;96386.00;;;;5093131;28;20310;-55
2022/10/30 04:14:15;;;;;;;1.10;1.10;;;12.30;95.50;11.60;96389.00;;;;5093225;28;20226;-54
2022/10/30 04:16:44;;;;;;;1.30;1.30;;;12.30;95.30;11.60;96393.00;;;;5075757;28;20718;-53
2022/10/30 04:19:13;;;;;;;1.23;1.23;;;12.30;95.20;11.60;96386.00;;;;5093176;28;20278;-53
2022/10/30 04:21:42;;;;;;;0.90;0.90;;;12.30;95.10;11.70;96391.00;;;;5092336;28;20254;-53
2022/10/30 04:24:09;;;;;;;1.13;1.13;;;12.30;95.00;11.70;96398.00;;;;5093109;28;20249;-55
2022/10/30 04:26:35;;;;;;;3.07;2.83;;;12.40;94.90;11.60;96381.00;;;;5094640;28;20213;-53
2022/10/30 04:29:02;;;;;;;1.37;1.33;;;12.30;94.60;11.30;96390.00;;;;5096148;28;20574;-54
2022/10/30 04:31:28;;;;;;;0.83;0.83;;;12.20;93.30;11.30;96388.00;;;;5096929;28;20221;-55
2022/10/30 04:33:54;;;;;;;1.00;1.00;;;12.10;94.50;11.10;96385.00;;;;5096550;28;20330;-53
2022/10/30 04:36:23;;;;;;;1.43;1.10;;;11.90;94.70;11.00;96389.00;;;;5095790;28;20228;-55
2022/10/30 04:38:53;;;;;;;1.10;1.10;;;11.80;95.30;11.10;96387.00;;;;5096585;28;20175;-55
2022/10/30 04:41:19;;;;;;;1.17;1.17;;;11.80;95.60;11.10;96387.00;;;;5096380;28;20218;-55
2022/10/30 04:43:48;;;;;;;1.53;1.43;;;11.80;95.80;11.10;96384.00;;;;5096375;28;20269;-53
2022/10/30 04:46:16;;;;;;;0.80;0.80;;;11.80;96.00;11.10;96391.00;;;;5096375;28;20222;-55
2022/10/30 04:48:42;;;;;;;0.90;0.90;;;11.80;95.60;11.10;96389.00;;;;5096389;28;20662;-53
2022/10/30 04:51:10;;;;;;;1.40;1.30;;;11.80;95.70;11.10;96394.00;;;;5096292;28;20233;-55
2022/10/30 04:53:38;;;;;;;1.40;1.30;;;11.80;95.60;11.00;96384.00;;;;5095422;28;20642;-53
2022/10/30 04:56:07;;;;;;;1.17;1.07;;;11.80;95.30;11.10;96389.00;;;;5096369;28;20199;-57
2022/10/30 04:58:36;;;;;;;1.20;1.20;;;11.80;95.80;11.10;96392.00;;;;5096355;28;20650;-54
2022/10/30 05:01:04;;;;;;;1.20;1.20;;;11.80;96.50;11.10;96397.00;;;;5096289;28;20221;-55
2022/10/30 05:03:30;;;;;;;1.00;1.00;;;11.80;95.80;11.10;96389.00;;;;5078291;28;20229;-53
2022/10/30 05:06:01;;;;;;;2.00;1.80;;;11.80;95.90;11.10;96387.00;;;;5095379;28;20285;-53
2022/10/30 05:08:31;;;;;;;1.10;1.10;;;11.80;96.00;11.10;96385.00;;;;5096218;28;20245;-53
2022/10/30 05:11:03;;;;;;;4.00;2.23;;;11.80;95.80;10.90;96382.00;;;;5095247;28;20221;-54
2022/10/30 05:13:31;;;;;;;2.13;1.97;;;;;10.80;96377.00;;;;5095927;28;20222;-53
2022/10/30 05:15:59;;;;;;;1.13;1.10;;;11.60;94.40;10.90;96378.00;;;;5095891;28;20207;-53
2022/10/30 05:18:26;;;;;;;0.77;0.77;;;11.60;95.20;10.90;96383.00;;;;5094930;28;20213;-53
2022/10/30 05:20:52;;;;;;;1.23;1.23;;;11.60;95.30;10.90;96378.00;;;;5094870;28;20227;-53
2022/10/30 05:23:18;;;;;;;0.60;0.60;;;11.60;95.50;10.90;96374.00;;;;5077966;28;20627;-54
2022/10/30 05:25:45;;;;;;;0.90;0.90;;;;;10.90;96374.00;;;;5094758;28;20210;-53
2022/10/30 05:28:12;;;;;;;14.17;1.17;;;11.60;95.00;10.90;96381.00;;;;5095733;28;20269;-54
2022/10/30 05:30:39;;;;;;;0.93;0.93;;;11.60;95.00;11.00;96374.00;;;;5095654;28;20203;-54
2022/10/30 05:33:11;;;;;;;2.10;1.47;;;11.70;95.40;10.90;96374.00;;;;5095619;28;20686;-53
2022/10/30 05:35:38;;;;;;;1.73;1.63;;;11.60;95.10;10.90;96370.00;;;;5095537;28;20232;-55
2022/10/30 05:38:06;;;;;;;4.20;1.70;;;11.60;95.70;10.90;96379.00;;;;5094770;28;20206;-53
2022/10/30 05:40:34;;;;;;;1.63;1.53;;;11.60;95.50;10.80;96378.00;;;;5094740;28;20562;-54
2022/10/30 05:43:01;;;;;;;0.80;0.80;;;11.60;95.40;10.70;96367.00;;;;5095463;28;20749;-54
2022/10/30 05:45:27;;;;;;;13.27;1.90;;;11.50;95.50;10.70;96381.00;;;;5095434;28;20194;-54
2022/10/30 05:47:56;;;;;;;0.97;0.97;;;11.50;95.30;10.50;96376.00;;;;5095305;28;20230;-54
2022/10/30 05:50:22;;;;;;;0.97;0.97;;;11.30;94.20;10.50;96374.00;;;;5095416;28;20219;-59
2022/10/30 05:52:49;;;;;;;1.10;1.10;;;11.20;95.10;10.60;96377.00;;;;5095248;28;20237;-55
2022/10/30 05:55:15;;;;;;;1.33;1.23;;;11.30;95.20;10.60;96376.00;;;;5095445;28;20203;-56
2022/10/30 05:57:42;;;;;;;0.80;0.80;;;11.30;94.90;10.60;96374.00;;;;5095547;28;20209;-56
2022/10/30 06:00:10;;;;;;;1.07;0.97;;;11.30;95.20;10.60;96379.00;;;;5077629;28;20639;-54
2022/10/30 06:02:36;;;;;;;1.27;1.27;;;11.30;94.80;10.60;96376.00;;;;5077333;28;20728;-53
2022/10/30 06:05:04;;;;;;;1.13;1.13;;;11.30;94.80;10.60;96372.00;;;;5095195;28;20517;-53
2022/10/30 06:07:31;;;;;;;1.40;1.40;;;11.30;95.60;10.60;96369.00;;;;5077309;28;20210;-53
2022/10/30 06:09:57;;;;;;;1.67;1.57;;;11.30;94.60;10.70;96382.00;;;;5095085;28;20222;-53
2022/10/30 06:12:23;;;;;;;1.70;1.40;;;11.40;94.80;10.60;96385.00;;;;5095052;28;20190;-53
2022/10/30 06:14:50;;;;;;;2.03;1.33;;;11.30;94.40;10.60;96374.00;;;;5094892;28;20222;-54
2022/10/30 06:17:16;;;;;;;1.87;1.40;;;11.30;94.40;10.70;96381.00;;;;5095017;28;20257;-54
2022/10/30 06:19:44;;;;;;;0.93;0.93;;;11.40;94.40;10.70;96380.00;;;;5095106;28;20230;-53
2022/10/30 06:22:12;;;;;;;1.20;1.10;;;11.40;94.30;10.60;96376.00;;;;5094895;28;20305;-53
2022/10/30 06:24:38;;;;;;;0.87;0.87;;;11.40;94.10;10.60;96378.00;;;;5094884;28;20206;-55
2022/10/30 06:27:04;;;;;;;1.43;1.33;;;11.40;93.80;10.60;96376.00;;;;5094788;28;20234;-54
2022/10/30 06:29:33;;;;;;;1.27;1.20;;;11.30;94.20;10.60;96380.00;;;;5077259;28;20202;-53
2022/10/30 06:31:59;;;;;;;1.00;1.00;;;11.30;94.10;10.60;96379.00;;;;5077122;28;20608;-55
2022/10/30 06:34:26;;;;;;;2.47;2.10;;;11.30;93.70;10.60;96385.00;;;;5094723;28;20260;-53
2022/10/30 06:36:52;;;;;;;3.20;0.90;;;11.30;93.70;10.70;96382.00;;;;5094770;28;20205;-53
2022/10/30 06:39:19;;;;;;;7.53;0.97;;;11.30;93.40;10.60;96377.00;;;;5094672;28;20224;-53
2022/10/30 06:41:46;;;;;;;1.03;1.03;;;11.30;93.20;10.70;96383.00;;;;5094530;28;20230;-54
2022/10/30 06:44:14;;;;;;;1.00;1.00;;;11.30;93.30;10.70;96356.00;;;;5094517;28;20195;-53
2022/10/30 06:46:41;;;;;;;2.03;1.87;;;11.40;93.40;10.70;96383.00;;;;5093613;28;20202;-53
2022/10/30 06:49:07;;;;;;;1.03;1.00;;;11.40;93.30;10.70;96382.00;;;;5094232;28;20219;-53
2022/10/30 06:51:34;;;;;;;1.27;1.27;;;11.40;92.50;10.70;96389.00;;;;5094316;28;20206;-54
2022/10/30 06:54:00;;;;;;;1.80;1.43;;;11.40;92.70;10.60;96377.00;;;;5093462;28;20244;-55
2022/10/30 06:56:27;;;;;;;2.03;1.77;;;11.40;92.20;10.70;96392.00;;;;5094359;28;20187;-54
2022/10/30 06:58:54;;;;;;;2.20;1.73;;;11.40;92.40;10.70;96393.00;;;;5094323;28;20205;-55
2022/10/30 07:01:20;;;;;;;1.07;1.07;;;11.40;92.40;10.80;96380.00;;;;5094137;28;20339;-53
2022/10/30 07:03:47;;;;;;;1.10;1.10;;;11.40;92.50;10.80;96388.00;;;;5094257;28;20273;-53
2022/10/30 07:06:13;;;;;;;1.00;1.00;;;11.50;92.20;10.90;96389.00;;;;5094207;28;20631;-54
2022/10/30 07:08:39;;;;;;;0.90;0.90;;;11.50;92.10;10.80;96383.00;;;;5094179;28;20297;-53
2022/10/30 07:11:06;;;;;;;0.63;0.63;;;11.50;92.10;10.80;96387.00;;;;5094076;28;20233;-53
2022/10/30 07:13:33;;;;;;;1.60;1.50;;;11.50;91.90;11.00;96392.00;;;;5094024;28;20277;-52
2022/10/30 07:15:59;;;;;;;1.77;1.23;;;11.60;91.80;10.90;96392.00;;;;5094144;28;20191;-54
2022/10/30 07:18:27;;;;;;;0.93;0.93;;;11.60;91.60;11.00;96385.00;;;;5094005;28;20203;-52
2022/10/30 07:20:54;;;;;;;1.50;1.40;;;11.70;91.50;11.10;96387.00;;;;5093789;28;20310;-53
2022/10/30 07:23:21;;;;;;;1.37;1.10;;;11.70;91.30;10.90;96401.00;;;;5093906;28;20200;-53
2022/10/30 07:25:47;;;;;;;0.73;0.73;;;11.70;91.40;11.20;96394.00;;;;5093885;28;20203;-53
2022/10/30 07:28:14;;;;;;;1.20;1.13;;;11.80;90.80;11.20;96390.00;;;;5093979;28;20321;-53
2022/10/30 07:30:41;;;;;;;0.70;0.70;;;11.80;90.60;11.20;96394.00;;;;5092835;28;20195;-55
2022/10/30 07:33:10;;;;;;;0.83;0.83;;;11.80;91.00;11.30;96391.00;;;;5093705;28;20214;-53
2022/10/30 07:35:36;;;;;;;2.03;1.10;;;11.90;90.90;11.40;96393.00;;;;5093722;28;20216;-53
2022/10/30 07:38:04;;;;;;;3.20;1.60;;;12.00;90.20;11.30;96398.00;;;;5093751;28;20198;-53
2022/10/30 07:40:31;;;;;;;1.17;1.17;;;11.90;90.80;11.50;96398.00;;;;5093719;28;20233;-53
2022/10/30 07:43:00;;;;;;;2.07;1.97;;;12.00;91.00;11.50;96389.00;;;;5075952;28;20288;-52
2022/10/30 07:45:27;;;;;;;2.27;2.07;;;12.00;90.90;11.70;96390.00;;;;5093534;28;20222;-53
2022/10/30 07:47:55;;;;;;;0.70;0.70;;;;;11.70;96399.00;;;;5093515;28;20210;-52
2022/10/30 07:50:22;;;;;;;1.20;1.10;;;12.30;90.20;11.80;96397.00;;;;5093487;28;20297;-53
2022/10/30 07:52:48;;;;;;;0.97;0.97;;;12.40;91.00;11.90;96397.00;;;;5093846;28;20198;-52
2022/10/30 07:55:17;;;;;;;1.27;1.27;;;12.50;91.10;12.00;96400.00;;;;5093521;28;20371;-53
2022/10/30 07:57:43;;;;;;;1.43;1.33;;;12.60;90.80;12.10;96405.00;;;;5093552;28;20226;-54
2022/10/30 08:00:14;;;;;;;0.83;0.83;;;12.70;90.50;12.20;96398.00;;;;5093310;28;20222;-53
2022/10/30 08:02:41;;;;;;;1.90;1.80;;;12.70;90.30;12.20;96399.00;;;;5075223;28;20230;-53
2022/10/30 08:05:09;;;;;;;1.50;1.47;;;12.80;90.50;12.30;96396.00;;;;5093464;28;20222;-54
2022/10/30 08:07:38;;;;;;;2.57;1.70;;;12.90;90.40;12.30;96402.00;;;;5093371;28;20203;-55
2022/10/30 08:10:08;;;;;;;2.77;2.13;;;13.00;90.40;12.50;96405.00;;;;5093204;28;20229;-57
2022/10/30 08:12:39;;;;;;;2.07;1.73;;;13.10;90.40;12.50;96400.00;;;;5093243;28;20199;-55
2022/10/30 08:15:06;;;;;;;1.43;1.33;;;13.10;90.40;12.60;96396.00;;;;5093476;28;20220;-53
2022/10/30 08:17:40;;;;;;;1.33;1.33;;;13.20;90.40;12.70;96402.00;;;;5075596;28;20210;-53
2022/10/30 08:20:10;;;;;;;5.80;2.63;;;;;12.90;96395.00;;;;5093311;28;20206;-53
2022/10/30 08:22:45;;;;;;;1.13;1.13;;;13.40;89.60;12.90;96367.00;;;;5093131;28;20261;-53
2022/10/30 08:25:14;;;;;;;1.27;1.27;;;13.40;89.00;13.00;96402.00;;;;5093148;28;20202;-53
2022/10/30 08:27:53;;;;;;;0.93;0.93;;;13.50;88.70;13.10;96396.00;;;;5092242;28;20294;-53
2022/10/30 08:30:20;;;;;;;0.80;0.80;;;13.70;88.80;13.30;96392.00;;;;5093159;28;20209;-53
2022/10/30 08:32:47;;;;;;;0.93;0.93;;;13.90;88.50;13.40;96389.00;;;;5075233;28;20286;-53
2022/10/30 08:35:15;;;;;;;1.17;1.10;;;13.90;88.30;13.40;96393.00;;;;5093082;28;20277;-53
2022/10/30 08:37:41;;;;;;;1.23;1.23;;;14.20;87.50;13.70;96391.00;;;;5093045;28;20187;-54
2022/10/30 08:40:10;;;;;;;1.10;1.07;;;14.20;88.60;13.80;96389.00;;;;5075306;28;20638;-53
2022/10/30 08:42:37;;;;;;;1.23;1.13;;;14.30;87.10;14.00;96394.00;;;;5092747;28;20311;-53
2022/10/30 08:45:05;;;;;;;1.33;1.33;;;14.50;87.00;14.10;96391.00;;;;5092017;28;20677;-57
2022/10/30 08:47:31;;;;;;;0.80;0.80;;;14.60;86.40;14.10;96389.00;;;;5092835;28;20242;-60
2022/10/30 08:49:58;;;;;;;0.83;0.83;;;14.70;86.50;14.00;96390.00;;;;5092929;28;20209;-54
2022/10/30 08:52:25;;;;;;;0.73;0.73;;;14.60;87.80;14.10;96391.00;;;;5092709;28;20219;-53
2022/10/30 08:54:54;;;;;;;1.57;1.47;;;14.70;88.10;14.30;96389.00;;;;5092693;28;20198;-52
2022/10/30 08:57:20;;;;;;;0.90;0.90;;;14.80;88.10;14.40;96394.00;;;;5092566;28;20528;-53
2022/10/30 08:59:47;;;;;;;1.87;1.77;;;14.90;88.40;14.30;96397.00;;;;5092699;28;20339;-53
2022/10/30 09:02:13;;;;;;;1.23;1.23;;;14.90;88.10;14.50;96389.00;;;;5092598;28;20323;-53
2022/10/30 09:04:40;;;;;;;1.00;1.00;;;15.00;88.80;14.70;96389.00;;;;5092629;28;20305;-53
2022/10/30 09:07:09;;;;;;;0.93;0.93;;;15.20;88.80;14.80;96392.00;;;;5092472;28;20199;-53
2022/10/30 09:09:36;;;;;;;0.87;0.87;;;15.30;88.90;14.90;96387.00;;;;5092561;28;20640;-55
2022/10/30 09:12:03;;;;;;;1.37;1.37;;;15.40;89.10;14.80;96389.00;;;;5092456;28;20607;-55
2022/10/30 09:14:31;;;;;;;0.90;0.90;;;15.40;88.90;15.00;96384.00;;;;5095117;28;20202;-53
2022/10/30 09:16:59;;;;;;;4.00;1.77;;;15.60;88.50;15.20;96391.00;;;;5096015;28;20281;-56
2022/10/30 09:19:27;;;;;;;2.27;1.90;;;15.70;87.40;15.40;96389.00;;;;5096111;28;20199;-52
2022/10/30 09:21:53;;;;;;;1.07;1.07;;;15.80;87.20;15.60;96387.00;;;;5095890;28;20225;-54
2022/10/30 09:24:22;;;;;;;1.93;1.47;;;16.00;87.20;15.80;96391.00;;;;5095879;28;20210;-54
2022/10/30 09:26:49;;;;;;;1.13;1.13;;;16.20;85.10;15.80;96387.00;;;;5095708;28;20257;-54
2022/10/30 09:29:16;;;;;;;1.83;1.67;;;16.30;85.40;15.90;96389.00;;;;5095725;28;20710;-55
2022/10/30 09:31:42;;;;;;;0.70;0.70;;;16.30;85.10;16.00;96385.00;;;;5095839;28;20187;-54
2022/10/30 09:34:09;;;;;;;1.50;1.40;;;16.50;84.90;16.20;96385.00;;;;5094733;28;20609;-53
2022/10/30 09:36:35;;;;;;;1.23;1.23;;;16.60;84.80;16.40;96381.00;;;;5095530;28;20221;-52
2022/10/30 09:39:01;;;;;;;1.33;1.23;;;16.80;84.00;16.60;96387.00;;;;5095322;28;20335;-52
2022/10/30 09:41:53;;;;;;;1.20;1.20;;;17.00;83.10;16.80;96391.00;;;;5095438;28;20646;-53
2022/10/30 09:44:38;;;;;;;0.60;0.60;;;17.20;83.20;16.90;96393.00;;;;5095425;28;20695;-54
2022/10/30 09:47:22;;;;;;;0.77;0.77;;;17.40;81.90;17.10;96389.00;;;;5094353;28;20326;-55
2022/10/30 09:50:06;;;;;;;0.70;0.70;;;17.50;81.60;17.30;96391.00;;;;5095293;28;20218;-53
2022/10/30 09:52:40;;;;;;;1.07;0.93;;;17.70;82.30;17.50;96389.00;;;;5095341;28;20201;-53
2022/10/30 09:55:30;;;;;;;2.87;1.23;;;17.90;81.50;17.80;96385.00;;;;5095098;28;20248;-54
2022/10/30 09:58:20;;;;;;;0.70;0.70;;;18.20;79.50;17.90;96393.00;;;;5095172;28;20211;-54
2022/10/30 10:00:55;;;;;;;0.70;0.70;;;18.30;80.40;18.00;96392.00;;;;5095041;28;20215;-53
2022/10/30 10:03:40;;;;;;;6.07;3.67;;;18.40;79.60;18.10;96389.00;;;;5094265;28;20202;-55
2022/10/30 10:06:16;;;;;;;2.00;1.53;;;18.50;78.10;18.30;96389.00;;;;5095096;28;20305;-56
2022/10/30 10:08:51;;;;;;;1.37;1.17;;;18.70;78.50;18.40;96398.00;;;;5094029;28;20202;-55
2022/10/30 10:11:24;;;;;;;1.03;1.03;;;18.80;78.50;18.80;96397.00;;;;5094969;28;20219;-54
2022/10/30 10:14:01;;;;;;;0.90;0.90;;;19.10;78.70;18.80;96394.00;;;;5094900;28;20206;-54
2022/10/30 10:16:34;;;;;;;1.37;1.27;;;19.20;78.20;19.00;96391.00;;;;5094670;28;20240;-54
2022/10/30 10:19:09;;;;;;;1.00;1.00;;;19.30;78.40;19.10;96391.00;;;;5095214;28;20205;-55
2022/10/30 10:21:40;;;;;;;1.00;1.00;;;;;19.30;96388.00;;;;5094739;28;20721;-55
2022/10/30 10:24:17;;;;;;;0.80;0.80;;;19.60;76.70;19.60;96392.00;;;;5094397;28;20204;-55
2022/10/30 10:26:48;;;;;;;0.57;0.57;;;;;19.90;96387.00;;;;5094737;28;20222;-56
2022/10/30 10:29:47;;;;;;;1.43;1.33;;;20.10;74.60;20.10;96377.00;;;;5076757;28;20194;-54
2022/10/30 10:32:43;;;;;;;0.80;0.80;;;20.40;75.10;20.20;96377.00;;;;5094805;28;20578;-56
2022/10/30 10:35:31;;;;;;;1.80;1.30;;;20.60;72.30;20.40;96383.00;;;;5093619;28;20199;-57
2022/10/30 10:38:11;;;;;;;0.77;0.77;;;20.70;70.80;20.70;96376.00;;;;5094810;28;20191;-55
2022/10/30 10:40:54;;;;;;;0.60;0.60;;;20.90;70.40;20.90;96377.00;;;;5094444;28;20244;-53
2022/10/30 10:43:42;;;;;;;1.13;1.03;;;21.20;68.10;21.10;96378.00;;;;5094611;28;20218;-54
2022/10/30 10:46:31;;;;;;;1.00;1.00;;;21.30;66.00;21.20;96375.00;;;;5094575;28;20229;-57
2022/10/30 10:49:19;;;;;;;1.00;1.00;;;21.40;65.20;21.50;96379.00;;;;5094589;28;20206;-54
2022/10/30 10:51:53;;;;;;;0.77;0.77;;;21.60;64.10;21.70;96374.00;;;;5094387;28;20215;-53
2022/10/30 10:54:27;;;;;;;1.47;1.37;;;21.90;62.80;22.10;96374.00;;;;5094419;28;20195;-52
2022/10/30 10:56:58;;;;;;;1.43;1.33;;;;;22.10;96369.00;;;;5094244;28;20271;-51
2022/10/30 10:59:36;;;;;;;0.32;0.32;;;22.40;59.20;22.30;96370.00;;;;5076779;28;20305;-52
2022/10/30 11:02:30;;;;;;;0.70;0.70;;;22.50;58.50;22.60;96370.00;;;;5094099;28;20222;-52
2022/10/30 11:05:07;;;;;;;0.70;0.70;;;22.70;57.40;23.10;96363.00;;;;5094238;28;20278;-52
2022/10/30 11:07:44;;;;;;;0.77;0.77;;;23.10;55.70;23.20;96362.00;;;;5076268;28;20222;-53
2022/10/30 11:10:14;;;;;;;1.30;1.20;;;23.30;54.40;23.50;96368.00;;;;5076429;28;20278;-53